createdAt,value
2022-10-02T00:00:05.181Z,9.43
2022-10-02T00:02:42.798Z,10.95
2022-10-02T00:05:13.100Z,9.30
2022-10-02T00:07:52.131Z,8.73
2022-10-02T00:10:25.122Z,8.98
2022-10-02T00:13:00.235Z,10.55
2022-10-02T00:15:30.813Z,9.00
2022-10-02T00:18:07.382Z,9.25
2022-10-02T00:20:58.004Z,8.85
2022-10-02T00:23:41.510Z,7.25
2022-10-02T00:26:25.588Z,8.82
2022-10-02T00:29:10.214Z,8.68
2022-10-02T00:32:08.046Z,8.23
2022-10-02T00:34:49.604Z,8.63
2022-10-02T00:37:37.777Z,8.20
2022-10-02T00:40:41.735Z,8.70
2022-10-02T00:43:17.348Z,8.45
2022-10-02T00:45:46.602Z,9.85
2022-10-02T00:48:47.092Z,9.27
2022-10-02T00:51:31.698Z,10.07
2022-10-02T00:54:25.792Z,8.70
2022-10-02T00:57:15.412Z,10.57
2022-10-02T01:00:00.067Z,9.75
2022-10-02T01:02:26.630Z,10.57
2022-10-02T01:04:54.430Z,12.50
2022-10-02T01:07:21.693Z,11.68
2022-10-02T01:09:48.512Z,11.98
2022-10-02T01:12:15.154Z,10.55
2022-10-02T01:14:42.259Z,9.70
2022-10-02T01:17:28.162Z,9.85
2022-10-02T01:19:55.856Z,9.88
2022-10-02T01:22:22.343Z,9.68
2022-10-02T01:24:52.824Z,10.63
2022-10-02T01:27:19.631Z,7.53
2022-10-02T01:29:51.574Z,7.53
2022-10-02T01:32:18.483Z,8.77
2022-10-02T01:34:48.641Z,10.52
2022-10-02T01:37:15.253Z,9.32
2022-10-02T01:39:41.919Z,9.20
2022-10-02T01:42:08.496Z,7.30
2022-10-02T01:44:35.241Z,7.20
2022-10-02T01:47:07.772Z,8.45
2022-10-02T01:49:52.964Z,7.95
2022-10-02T01:52:41.093Z,8.57
2022-10-02T01:55:35.217Z,7.78
2022-10-02T01:58:28.435Z,6.32
2022-10-02T02:01:16.608Z,6.97
2022-10-02T02:04:10.903Z,6.97
2022-10-02T02:06:57.182Z,7.57
2022-10-02T02:09:39.478Z,7.53
2022-10-02T02:14:51.283Z,7.20
2022-10-02T02:17:17.797Z,6.88
2022-10-02T02:19:50.640Z,7.60
2022-10-02T02:22:29.889Z,7.00
2022-10-02T02:25:19.912Z,7.82
2022-10-02T02:27:53.137Z,7.57
2022-10-02T02:30:21.696Z,8.20
2022-10-02T02:32:53.323Z,6.70
2022-10-02T02:35:33.735Z,7.78
2022-10-02T02:38:08.212Z,7.25
2022-10-02T02:40:39.395Z,6.43
2022-10-02T02:43:13.204Z,6.80
2022-10-02T02:45:48.062Z,7.85
2022-10-02T02:48:39.395Z,7.22
2022-10-02T02:51:13.436Z,7.45
2022-10-02T02:53:46.604Z,8.20
2022-10-02T02:56:16.439Z,7.22
2022-10-02T02:59:14.787Z,7.15
2022-10-02T03:01:42.510Z,7.53
2022-10-02T03:04:13.907Z,7.68
2022-10-02T03:06:44.813Z,7.43
2022-10-02T03:09:20.824Z,7.85
2022-10-02T03:12:12.248Z,8.25
2022-10-02T03:17:14.557Z,7.60
2022-10-02T03:19:47.973Z,9.13
2022-10-02T03:22:36.196Z,7.70
2022-10-02T03:25:07.959Z,8.05
2022-10-02T03:27:41.305Z,7.70
2022-10-02T03:30:13.455Z,8.52
2022-10-02T03:35:13.079Z,6.95
2022-10-02T03:37:47.028Z,7.35
2022-10-02T03:40:13.612Z,7.50
2022-10-02T03:42:40.273Z,7.18
2022-10-02T03:45:07.731Z,7.13
2022-10-02T03:47:34.846Z,7.00
2022-10-02T03:50:01.430Z,6.18
2022-10-02T03:52:32.128Z,7.30
2022-10-02T03:55:04.679Z,7.50
2022-10-02T03:57:33.990Z,8.10
2022-10-02T04:00:12.920Z,6.43
2022-10-02T04:02:54.120Z,6.72
2022-10-02T04:05:29.187Z,7.28
2022-10-02T04:08:00.168Z,8.05
2022-10-02T04:10:39.333Z,6.68
2022-10-02T04:13:21.388Z,8.38
2022-10-02T04:15:50.635Z,6.82
2022-10-02T04:18:43.458Z,6.85
2022-10-02T04:21:23.893Z,7.00
2022-10-02T04:23:55.491Z,7.57
2022-10-02T04:26:29.713Z,6.15
2022-10-02T04:29:01.669Z,7.05
2022-10-02T04:34:01.645Z,6.60
2022-10-02T04:36:53.396Z,6.95
2022-10-02T04:39:47.054Z,6.63
2022-10-02T04:42:38.091Z,7.40
2022-10-02T04:45:26.576Z,7.32
2022-10-02T04:48:24.252Z,8.48
2022-10-02T04:51:33.945Z,7.30
2022-10-02T04:54:06.312Z,8.00
2022-10-02T04:57:16.612Z,7.45
2022-10-02T05:00:08.216Z,8.90
2022-10-02T05:02:48.227Z,7.33
2022-10-02T05:07:48.244Z,8.15
2022-10-02T05:10:49.009Z,7.90
2022-10-02T05:13:18.300Z,7.07
2022-10-02T05:16:01.885Z,5.95
2022-10-02T05:18:59.031Z,6.82
2022-10-02T05:21:47.197Z,5.70
2022-10-02T05:24:38.024Z,6.78
2022-10-02T05:27:28.972Z,6.60
2022-10-02T05:30:07.628Z,6.53
2022-10-02T05:32:43.882Z,5.88
2022-10-02T05:35:58.129Z,5.88
2022-10-02T05:38:50.801Z,6.22
2022-10-02T05:41:50.076Z,5.95
2022-10-02T05:44:24.453Z,5.40
2022-10-02T05:47:10.684Z,4.95
2022-10-02T05:50:06.024Z,4.80
2022-10-02T05:52:37.177Z,5.20
2022-10-02T05:55:27.304Z,5.73
2022-10-02T05:58:28.959Z,5.35
2022-10-02T06:01:17.573Z,5.00
2022-10-02T06:03:57.583Z,5.93
2022-10-02T06:06:30.622Z,6.05
2022-10-02T06:09:19.957Z,5.70
2022-10-02T06:12:06.983Z,5.18
2022-10-02T06:15:07.463Z,4.85
2022-10-02T06:17:43.433Z,5.40
2022-10-02T06:20:24.596Z,5.25
2022-10-02T06:23:12.935Z,4.45
2022-10-02T06:26:01.283Z,4.72
2022-10-02T06:28:38.920Z,5.22
2022-10-02T06:31:15.865Z,6.03
2022-10-02T06:33:42.753Z,6.07
2022-10-02T06:36:09.310Z,5.38
2022-10-02T06:39:15.008Z,5.28
2022-10-02T06:41:57.571Z,4.70
2022-10-02T06:44:30.919Z,5.18
2022-10-02T06:47:16.433Z,4.78
2022-10-02T06:52:14.165Z,4.43
2022-10-02T06:55:00.075Z,5.85
2022-10-02T06:57:52.820Z,8.95
2022-10-02T07:00:21.849Z,3.65
2022-10-02T07:02:51.564Z,6.43
2022-10-02T07:05:30.421Z,5.82
2022-10-02T07:08:24.144Z,4.70
2022-10-02T07:11:24.934Z,7.25
2022-10-02T07:14:10.310Z,5.45
2022-10-02T07:16:38.818Z,4.13
2022-10-02T07:19:33.103Z,5.95
2022-10-02T07:22:42.989Z,4.75
2022-10-02T07:25:32.150Z,4.38
2022-10-02T07:28:34.052Z,4.75
2022-10-02T07:31:10.600Z,5.00
2022-10-02T07:33:55.992Z,4.38
2022-10-02T07:36:48.586Z,4.50
2022-10-02T07:39:25.769Z,4.97
2022-10-02T07:41:58.106Z,3.97
2022-10-02T07:44:30.640Z,4.75
2022-10-02T07:47:24.899Z,5.15
2022-10-02T07:50:05.791Z,5.07
2022-10-02T07:53:01.995Z,4.25
2022-10-02T07:55:28.755Z,4.75
2022-10-02T07:58:17.272Z,4.38
2022-10-02T08:00:48.988Z,3.05
2022-10-02T08:03:22.711Z,4.25
2022-10-02T08:05:53.591Z,4.88
2022-10-02T08:08:38.695Z,4.95
2022-10-02T08:11:16.587Z,3.80
2022-10-02T08:13:45.952Z,3.33
2022-10-02T08:16:16.188Z,3.08
2022-10-02T08:19:18.481Z,3.40
2022-10-02T08:21:50.943Z,2.90
2022-10-02T08:24:24.065Z,3.95
2022-10-02T08:27:09.330Z,4.07
2022-10-02T08:29:56.145Z,2.97
2022-10-02T08:32:34.788Z,3.88
2022-10-02T08:35:05.781Z,3.60
2022-10-02T08:37:46.697Z,3.40
2022-10-02T08:40:42.403Z,3.70
2022-10-02T08:43:17.910Z,3.40
2022-10-02T08:46:09.287Z,2.67
2022-10-02T08:48:39.667Z,4.03
2022-10-02T08:51:44.585Z,3.22
2022-10-02T08:54:26.035Z,3.55
2022-10-02T08:57:17.168Z,2.88
2022-10-02T09:00:22.961Z,3.80
2022-10-02T09:03:26.008Z,3.25
2022-10-02T09:06:30.532Z,2.63
2022-10-02T09:09:15.385Z,3.25
2022-10-02T09:11:44.881Z,3.80
2022-10-02T09:14:39.659Z,3.45
2022-10-02T09:17:30.711Z,3.25
2022-10-02T09:20:16.264Z,3.03
2022-10-02T09:23:00.874Z,3.78
2022-10-02T09:25:33.172Z,4.38
2022-10-02T09:28:24.582Z,3.25
2022-10-02T09:31:30.593Z,3.50
2022-10-02T09:34:09.284Z,3.25
2022-10-02T09:37:00.135Z,4.38
2022-10-02T09:39:51.723Z,3.42
2022-10-02T09:42:52.157Z,3.30
2022-10-02T09:45:45.830Z,2.80
2022-10-02T09:48:45.297Z,2.90
2022-10-02T09:51:14.774Z,3.53
2022-10-02T09:54:39.193Z,4.45
2022-10-02T09:57:28.153Z,6.28
2022-10-02T09:59:54.680Z,3.65
2022-10-02T10:02:45.345Z,3.60
2022-10-02T10:05:21.876Z,3.65
2022-10-02T10:07:48.409Z,3.15
2022-10-02T10:10:39.261Z,2.40
2022-10-02T10:13:49.701Z,4.45
2022-10-02T10:16:30.295Z,3.25
2022-10-02T10:19:38.545Z,3.22
2022-10-02T10:22:32.354Z,4.32
2022-10-02T10:25:01.623Z,2.58
2022-10-02T10:27:55.951Z,3.30
2022-10-02T10:30:34.788Z,2.38
2022-10-02T10:33:34.760Z,3.50
2022-10-02T10:36:45.961Z,2.55
2022-10-02T10:39:36.242Z,2.47
2022-10-02T10:42:50.168Z,2.00
2022-10-02T10:45:44.016Z,2.63
2022-10-02T10:48:49.167Z,2.50
2022-10-02T10:51:53.503Z,2.15
2022-10-02T10:55:08.679Z,2.78
2022-10-02T10:57:55.720Z,2.53
2022-10-02T11:00:30.800Z,3.35
2022-10-02T11:03:27.957Z,2.20
2022-10-02T11:05:57.368Z,2.95
2022-10-02T11:08:55.526Z,2.30
2022-10-02T11:11:33.764Z,2.50
2022-10-02T11:14:36.404Z,1.90
2022-10-02T11:17:24.839Z,2.53
2022-10-02T11:20:03.356Z,2.30
2022-10-02T11:23:08.364Z,3.45
2022-10-02T11:26:06.138Z,2.05
2022-10-02T11:29:03.773Z,2.45
2022-10-02T11:31:46.981Z,6.95
2022-10-02T11:34:49.060Z,4.40
2022-10-02T11:37:37.956Z,2.63
2022-10-02T11:40:30.013Z,4.80
2022-10-02T11:43:28.263Z,2.45
2022-10-02T11:46:12.928Z,2.33
2022-10-02T11:49:07.824Z,2.05
2022-10-02T11:51:51.228Z,2.15
2022-10-02T11:54:33.163Z,3.65
2022-10-02T11:57:29.156Z,2.17
2022-10-02T12:00:13.356Z,2.70
2022-10-02T12:03:01.622Z,1.98
2022-10-02T12:05:45.964Z,2.10
2022-10-02T12:08:16.126Z,3.47
2022-10-02T12:11:06.548Z,2.80
2022-10-02T12:13:47.061Z,3.03
2022-10-02T12:16:32.698Z,4.63
2022-10-02T12:19:11.545Z,1.65
2022-10-02T12:22:16.343Z,2.42
2022-10-02T12:25:11.005Z,1.98
2022-10-02T12:27:51.872Z,2.03
2022-10-02T12:30:42.032Z,2.20
2022-10-02T12:33:21.915Z,1.98
2022-10-02T12:36:20.751Z,2.63
2022-10-02T12:39:11.741Z,2.15
2022-10-02T12:41:59.587Z,2.50
2022-10-02T12:45:11.722Z,2.60
2022-10-02T12:47:50.725Z,1.80
2022-10-02T12:50:46.365Z,2.92
2022-10-02T12:53:25.353Z,2.83
2022-10-02T12:56:33.545Z,1.85
2022-10-02T12:59:30.904Z,2.60
2022-10-02T13:02:18.562Z,2.17
2022-10-02T13:04:50.829Z,2.25
2022-10-02T13:07:55.950Z,3.35
2022-10-02T13:10:26.163Z,2.45
2022-10-02T13:13:09.892Z,2.53
2022-10-02T13:15:53.796Z,2.55
2022-10-02T13:18:43.914Z,2.22
2022-10-02T13:21:23.792Z,2.50
2022-10-02T13:26:22.334Z,2.50
2022-10-02T13:29:26.408Z,2.03
2022-10-02T13:32:18.420Z,2.30
2022-10-02T13:35:05.080Z,2.38
2022-10-02T13:37:58.589Z,3.10
2022-10-02T13:40:50.117Z,2.38
2022-10-02T13:43:58.712Z,1.90
2022-10-02T13:46:45.046Z,2.17
2022-10-02T13:49:20.805Z,2.03
2022-10-02T13:52:07.148Z,2.33
2022-10-02T13:54:50.801Z,3.45
2022-10-02T13:57:39.211Z,1.90
2022-10-02T14:00:23.826Z,2.35
2022-10-02T14:03:06.553Z,2.00
2022-10-02T14:05:57.692Z,2.10
2022-10-02T14:09:11.603Z,1.80
2022-10-02T14:12:03.916Z,3.00
2022-10-02T14:17:46.849Z,2.30
2022-10-02T14:20:19.003Z,2.75
2022-10-02T14:23:15.554Z,2.42
2022-10-02T14:26:05.872Z,3.50
2022-10-02T14:29:08.691Z,2.97
2022-10-02T14:31:50.757Z,2.63
2022-10-02T14:34:38.729Z,4.63
2022-10-02T14:37:23.723Z,5.22
2022-10-02T14:39:50.733Z,2.35
2022-10-02T14:43:00.760Z,2.75
2022-10-02T14:45:36.279Z,2.70
2022-10-02T14:48:27.030Z,2.58
2022-10-02T14:51:11.614Z,4.07
2022-10-02T14:53:59.082Z,3.70
2022-10-02T14:56:47.173Z,37.28
2022-10-02T14:59:46.295Z,5.40
2022-10-02T15:02:55.942Z,4.50
2022-10-02T15:05:59.349Z,4.32
2022-10-02T15:08:36.745Z,5.70
2022-10-02T15:11:07.358Z,4.13
2022-10-02T15:13:49.003Z,3.60
2022-10-02T15:16:39.125Z,3.13
2022-10-02T15:19:12.539Z,3.58
2022-10-02T15:21:58.057Z,3.53
2022-10-02T15:24:29.549Z,4.05
2022-10-02T15:27:11.398Z,3.60
2022-10-02T15:29:58.500Z,4.07
2022-10-02T15:32:34.583Z,4.65
2022-10-02T15:35:07.206Z,5.63
2022-10-02T15:38:01.806Z,7.63
2022-10-02T15:40:33.753Z,6.00
2022-10-02T15:43:15.631Z,5.40
2022-10-02T15:46:24.141Z,5.20
2022-10-02T15:48:58.501Z,6.85
2022-10-02T15:51:55.536Z,4.88
2022-10-02T15:54:44.336Z,5.70
2022-10-02T15:57:32.143Z,4.65
2022-10-02T16:00:08.084Z,4.32
2022-10-02T16:02:56.777Z,4.68
2022-10-02T16:05:29.249Z,5.18
2022-10-02T16:08:15.790Z,4.72
2022-10-02T16:10:57.071Z,4.25
2022-10-02T16:13:40.502Z,4.00
2022-10-02T16:16:34.885Z,4.15
2022-10-02T16:19:04.565Z,6.30
2022-10-02T16:21:46.326Z,14.50
2022-10-02T16:24:24.275Z,7.93
2022-10-02T16:27:32.450Z,7.15
2022-10-02T16:30:11.802Z,8.15
2022-10-02T16:33:03.222Z,7.25
2022-10-02T16:35:42.840Z,4.47
2022-10-02T16:38:13.928Z,5.60
2022-10-02T16:40:57.075Z,5.03
2022-10-02T16:43:43.163Z,6.72
2022-10-02T16:46:22.189Z,6.90
2022-10-02T16:49:11.199Z,5.88
2022-10-02T16:52:02.924Z,6.10
2022-10-02T16:54:53.585Z,5.50
2022-10-02T16:57:38.901Z,5.80
2022-10-02T17:00:49.441Z,5.55
2022-10-02T17:03:30.323Z,7.28
2022-10-02T17:06:26.609Z,5.30
2022-10-02T17:09:05.942Z,6.40
2022-10-02T17:11:51.325Z,7.43
2022-10-02T17:14:31.088Z,8.25
2022-10-02T17:19:47.587Z,9.43
2022-10-02T17:22:42.131Z,8.60
2022-10-02T17:25:33.032Z,7.10
2022-10-02T17:28:19.296Z,7.15
2022-10-02T17:31:00.959Z,5.70
2022-10-02T17:33:44.956Z,6.03
2022-10-02T17:36:35.473Z,6.07
2022-10-02T17:39:36.569Z,6.72
2022-10-02T17:42:14.419Z,6.18
2022-10-02T17:44:45.125Z,9.48
2022-10-02T17:47:31.693Z,8.57
2022-10-02T17:50:26.402Z,8.90
2022-10-02T17:56:02.557Z,10.00
2022-10-02T17:59:10.892Z,9.27
2022-10-02T18:02:03.382Z,9.63
2022-10-02T18:04:39.085Z,9.80
2022-10-02T18:07:24.470Z,8.20
2022-10-02T18:10:03.663Z,9.45
2022-10-02T18:12:33.581Z,6.50
2022-10-02T18:15:18.706Z,6.82
2022-10-02T18:18:17.411Z,6.18
2022-10-02T18:21:12.880Z,6.85
2022-10-02T18:23:51.329Z,7.50
2022-10-02T18:26:29.787Z,33.58
2022-10-02T18:29:05.316Z,29.20
2022-10-02T18:31:54.657Z,18.35
2022-10-02T18:34:56.428Z,16.55
2022-10-02T18:37:54.521Z,15.65
2022-10-02T18:40:43.190Z,10.77
2022-10-02T18:43:29.838Z,11.13
2022-10-02T18:46:14.690Z,14.18
2022-10-02T18:51:25.380Z,19.63
2022-10-02T18:54:32.993Z,18.55
2022-10-02T18:57:08.920Z,17.98
2022-10-02T19:00:06.341Z,21.63
2022-10-02T19:02:41.652Z,28.00
2022-10-02T19:05:32.753Z,21.75
2022-10-02T19:08:21.616Z,10.25
2022-10-02T19:10:49.528Z,4.53
2022-10-02T19:13:25.760Z,4.57
2022-10-02T19:15:58.333Z,3.92
2022-10-02T19:18:28.051Z,4.25
2022-10-02T19:21:11.733Z,5.68
2022-10-02T19:24:01.491Z,4.82
2022-10-02T19:26:33.449Z,4.10
2022-10-02T19:29:08.216Z,4.80
2022-10-02T19:31:39.477Z,4.70
2022-10-02T19:34:15.568Z,3.65
2022-10-02T19:36:50.067Z,5.82
2022-10-02T19:39:26.403Z,4.22
2022-10-02T19:41:59.074Z,5.80
2022-10-02T19:44:43.496Z,5.43
2022-10-02T19:47:23.421Z,5.25
2022-10-02T19:49:52.504Z,5.38
2022-10-02T19:52:52.461Z,6.35
2022-10-02T19:55:34.086Z,6.38
2022-10-02T19:58:07.678Z,7.30
2022-10-02T20:00:38.737Z,8.88
2022-10-02T20:03:16.545Z,9.77
2022-10-02T20:05:48.338Z,9.05
2022-10-02T20:08:22.065Z,12.38
2022-10-02T20:11:00.989Z,13.15
2022-10-02T20:13:37.494Z,14.98
2022-10-02T20:16:35.511Z,12.75
2022-10-02T20:19:05.532Z,13.68
2022-10-02T20:22:01.404Z,13.50
2022-10-02T20:24:50.584Z,12.23
2022-10-02T20:27:29.947Z,12.27
2022-10-02T20:30:03.076Z,10.80
2022-10-02T20:32:55.810Z,11.45
2022-10-02T20:37:47.354Z,10.05
2022-10-02T20:40:22.036Z,12.88
2022-10-02T20:43:16.697Z,14.05
2022-10-02T20:45:53.079Z,10.38
2022-10-02T20:49:03.476Z,12.88
2022-10-02T20:51:54.051Z,13.70
2022-10-02T20:54:34.566Z,15.15
2022-10-02T20:57:04.169Z,15.23
2022-10-02T20:59:47.896Z,14.25
2022-10-02T21:02:29.582Z,15.25
2022-10-02T21:05:14.998Z,14.73
2022-10-02T21:08:18.763Z,13.95
2022-10-02T21:11:13.290Z,15.55
2022-10-02T21:14:00.129Z,14.93
2022-10-02T21:16:50.182Z,12.70
2022-10-02T21:19:48.914Z,15.65
2022-10-02T21:22:42.680Z,15.73
2022-10-02T21:25:27.840Z,13.73
2022-10-02T21:28:13.385Z,13.23
2022-10-02T21:31:21.473Z,12.48
2022-10-02T21:34:00.240Z,14.40
2022-10-02T21:36:36.390Z,13.05
2022-10-02T21:39:18.896Z,12.75
2022-10-02T21:42:17.587Z,13.93
2022-10-02T21:45:16.660Z,13.27
2022-10-02T21:48:17.276Z,12.40
2022-10-02T21:51:17.916Z,13.88
2022-10-02T21:54:31.944Z,13.38
2022-10-02T21:57:19.548Z,14.40
2022-10-02T22:00:23.593Z,14.20
2022-10-02T22:03:27.871Z,15.45
2022-10-02T22:06:25.813Z,15.68
2022-10-02T22:09:21.975Z,13.32
2022-10-02T22:12:04.932Z,14.18
2022-10-02T22:14:45.055Z,14.00
2022-10-02T22:17:18.564Z,14.00
2022-10-02T22:20:12.549Z,16.48
2022-10-02T22:22:45.092Z,14.30
2022-10-02T22:25:43.689Z,13.02
2022-10-02T22:28:16.193Z,17.15
2022-10-02T22:30:54.802Z,13.23
2022-10-02T22:33:31.780Z,13.93
2022-10-02T22:36:08.866Z,13.15
2022-10-02T22:38:54.677Z,13.70
2022-10-02T22:41:31.131Z,11.25
2022-10-02T22:44:09.070Z,12.70
2022-10-02T22:46:56.326Z,12.77
2022-10-02T22:49:41.790Z,11.30
2022-10-02T22:52:25.881Z,13.40
2022-10-02T22:54:57.877Z,12.98
2022-10-02T22:57:42.576Z,12.85
2022-10-02T23:00:23.183Z,13.05
2022-10-02T23:03:06.116Z,11.85
2022-10-02T23:05:46.612Z,12.13
2022-10-02T23:08:32.076Z,14.48
2022-10-02T23:11:14.748Z,13.13
2022-10-02T23:13:50.312Z,13.13
2022-10-02T23:16:26.438Z,12.88
2022-10-02T23:19:15.538Z,12.30
2022-10-02T23:21:52.104Z,15.10
2022-10-02T23:24:29.781Z,13.57
2022-10-02T23:27:02.349Z,17.15
2022-10-02T23:29:46.453Z,16.13
2022-10-02T23:32:36.355Z,16.10
2022-10-02T23:35:37.053Z,14.35
2022-10-02T23:38:30.835Z,13.23
2022-10-02T23:41:25.004Z,13.98
2022-10-02T23:43:59.779Z,15.50
2022-10-02T23:46:31.121Z,14.52
2022-10-02T23:48:58.989Z,14.15
2022-10-02T23:51:55.171Z,13.85
2022-10-02T23:54:34.886Z,15.50
2022-10-02T23:57:10.292Z,15.55
